sensor_id;sensor_type;location;lat;lon;timestamp;temperature;humidity
23719;DHT22;43322;52.230;5.702;2023-02-28T00:01:22;1.20;99.90
23719;DHT22;43322;52.230;5.702;2023-02-28T00:03:51;1.30;99.90
23719;DHT22;43322;52.230;5.702;2023-02-28T00:06:17;1.30;99.90
23719;DHT22;43322;52.230;5.702;2023-02-28T00:08:45;1.30;99.90
23719;DHT22;43322;52.230;5.702;2023-02-28T00:11:14;1.30;99.90
23719;DHT22;43322;52.230;5.702;2023-02-28T00:13:42;1.30;99.90
23719;DHT22;43322;52.230;5.702;2023-02-28T00:16:13;1.40;99.90
23719;DHT22;43322;52.230;5.702;2023-02-28T00:18:40;1.40;99.90
23719;DHT22;43322;52.230;5.702;2023-02-28T00:21:08;1.40;99.90
23719;DHT22;43322;52.230;5.702;2023-02-28T00:23:36;1.30;99.90
23719;DHT22;43322;52.230;5.702;2023-02-28T00:26:03;1.40;99.90
23719;DHT22;43322;52.230;5.702;2023-02-28T00:28:30;1.40;99.90
23719;DHT22;43322;52.230;5.702;2023-02-28T00:30:57;1.40;99.90
23719;DHT22;43322;52.230;5.702;2023-02-28T00:33:25;1.40;99.90
23719;DHT22;43322;52.230;5.702;2023-02-28T00:35:52;1.40;99.90
23719;DHT22;43322;52.230;5.702;2023-02-28T00:38:28;1.40;99.90
23719;DHT22;43322;52.230;5.702;2023-02-28T00:40:55;1.40;99.90
23719;DHT22;43322;52.230;5.702;2023-02-28T00:43:22;1.40;99.90
23719;DHT22;43322;52.230;5.702;2023-02-28T00:45:48;1.50;99.90
23719;DHT22;43322;52.230;5.702;2023-02-28T00:48:15;1.50;99.90
23719;DHT22;43322;52.230;5.702;2023-02-28T00:50:42;1.50;99.90
23719;DHT22;43322;52.230;5.702;2023-02-28T00:53:09;1.50;99.90
23719;DHT22;43322;52.230;5.702;2023-02-28T00:55:37;1.50;99.90
23719;DHT22;43322;52.230;5.702;2023-02-28T00:58:04;1.50;99.90
23719;DHT22;43322;52.230;5.702;2023-02-28T01:00:31;1.50;99.90
23719;DHT22;43322;52.230;5.702;2023-02-28T01:02:58;1.50;99.90
23719;DHT22;43322;52.230;5.702;2023-02-28T01:05:24;1.50;99.90
23719;DHT22;43322;52.230;5.702;2023-02-28T01:07:51;1.50;99.90
23719;DHT22;43322;52.230;5.702;2023-02-28T01:10:18;1.50;99.90
23719;DHT22;43322;52.230;5.702;2023-02-28T01:12:47;1.50;99.90
23719;DHT22;43322;52.230;5.702;2023-02-28T01:15:14;1.60;99.90
23719;DHT22;43322;52.230;5.702;2023-02-28T01:17:41;1.60;99.90
23719;DHT22;43322;52.230;5.702;2023-02-28T01:20:09;1.50;99.90
23719;DHT22;43322;52.230;5.702;2023-02-28T01:22:36;1.60;99.90
23719;DHT22;43322;52.230;5.702;2023-02-28T01:25:03;1.60;99.90
23719;DHT22;43322;52.230;5.702;2023-02-28T01:27:30;1.70;99.90
23719;DHT22;43322;52.230;5.702;2023-02-28T01:29:58;1.70;99.90
23719;DHT22;43322;52.230;5.702;2023-02-28T01:32:25;1.80;99.90
23719;DHT22;43322;52.230;5.702;2023-02-28T01:34:51;1.80;99.90
23719;DHT22;43322;52.230;5.702;2023-02-28T01:37:18;1.80;99.90
23719;DHT22;43322;52.230;5.702;2023-02-28T01:39:45;1.80;99.90
23719;DHT22;43322;52.230;5.702;2023-02-28T01:42:12;1.80;99.90
23719;DHT22;43322;52.230;5.702;2023-02-28T01:45:18;1.80;99.90
23719;DHT22;43322;52.230;5.702;2023-02-28T01:47:48;1.80;99.90
23719;DHT22;43322;52.230;5.702;2023-02-28T01:50:19;2.10;99.90
23719;DHT22;43322;52.230;5.702;2023-02-28T01:52:47;1.80;99.90
23719;DHT22;43322;52.230;5.702;2023-02-28T01:55:15;2.20;99.90
23719;DHT22;43322;52.230;5.702;2023-02-28T01:57:46;1.70;99.90
23719;DHT22;43322;52.230;5.702;2023-02-28T02:00:18;1.80;99.90
23719;DHT22;43322;52.230;5.702;2023-02-28T02:02:51;1.80;99.90
23719;DHT22;43322;52.230;5.702;2023-02-28T02:05:20;1.80;99.90
23719;DHT22;43322;52.230;5.702;2023-02-28T02:07:50;1.80;99.90
23719;DHT22;43322;52.230;5.702;2023-02-28T02:10:20;1.80;99.90
23719;DHT22;43322;52.230;5.702;2023-02-28T02:13:08;1.80;99.90
23719;DHT22;43322;52.230;5.702;2023-02-28T02:15:41;1.80;99.90
23719;DHT22;43322;52.230;5.702;2023-02-28T02:18:17;2.80;99.90
23719;DHT22;43322;52.230;5.702;2023-02-28T02:21:16;1.80;99.90
23719;DHT22;43322;52.230;5.702;2023-02-28T02:27:08;1.80;99.90
23719;DHT22;43322;52.230;5.702;2023-02-28T02:30:14;1.80;99.90
23719;DHT22;43322;52.230;5.702;2023-02-28T02:35:53;1.80;99.90
23719;DHT22;43322;52.230;5.702;2023-02-28T02:38:31;1.80;99.90
23719;DHT22;43322;52.230;5.702;2023-02-28T02:41:06;1.80;99.90
23719;DHT22;43322;52.230;5.702;2023-02-28T02:43:38;1.80;99.90
23719;DHT22;43322;52.230;5.702;2023-02-28T02:46:12;1.90;99.90
23719;DHT22;43322;52.230;5.702;2023-02-28T02:48:41;1.80;99.90
23719;DHT22;43322;52.230;5.702;2023-02-28T02:51:14;1.80;99.90
23719;DHT22;43322;52.230;5.702;2023-02-28T02:53:45;1.80;99.90
23719;DHT22;43322;52.230;5.702;2023-02-28T02:56:16;1.80;99.90
23719;DHT22;43322;52.230;5.702;2023-02-28T02:58:48;1.90;99.90
23719;DHT22;43322;52.230;5.702;2023-02-28T03:01:19;2.10;99.90
23719;DHT22;43322;52.230;5.702;2023-02-28T03:03:55;1.90;99.90
23719;DHT22;43322;52.230;5.702;2023-02-28T03:06:23;1.90;99.90
23719;DHT22;43322;52.230;5.702;2023-02-28T03:08:50;1.90;99.90
23719;DHT22;43322;52.230;5.702;2023-02-28T03:11:17;1.90;99.90
23719;DHT22;43322;52.230;5.702;2023-02-28T03:14:06;2.00;99.90
23719;DHT22;43322;52.230;5.702;2023-02-28T03:16:45;2.00;99.90
23719;DHT22;43322;52.230;5.702;2023-02-28T03:19:33;2.00;99.90
23719;DHT22;43322;52.230;5.702;2023-02-28T03:22:14;2.00;99.90
23719;DHT22;43322;52.230;5.702;2023-02-28T03:24:49;2.00;99.90
23719;DHT22;43322;52.230;5.702;2023-02-28T03:27:24;2.10;99.90
23719;DHT22;43322;52.230;5.702;2023-02-28T03:29:58;2.10;99.90
23719;DHT22;43322;52.230;5.702;2023-02-28T03:32:29;2.10;99.90
23719;DHT22;43322;52.230;5.702;2023-02-28T03:35:02;2.10;99.90
23719;DHT22;43322;52.230;5.702;2023-02-28T03:37:36;2.10;99.90
23719;DHT22;43322;52.230;5.702;2023-02-28T03:40:07;2.10;99.90
23719;DHT22;43322;52.230;5.702;2023-02-28T03:42:41;2.10;99.90
23719;DHT22;43322;52.230;5.702;2023-02-28T03:45:13;2.10;99.90
23719;DHT22;43322;52.230;5.702;2023-02-28T03:47:45;2.10;99.90
23719;DHT22;43322;52.230;5.702;2023-02-28T03:50:16;2.10;99.90
23719;DHT22;43322;52.230;5.702;2023-02-28T03:52:49;2.10;99.90
23719;DHT22;43322;52.230;5.702;2023-02-28T03:55:18;2.10;99.90
23719;DHT22;43322;52.230;5.702;2023-02-28T03:57:53;2.00;99.90
23719;DHT22;43322;52.230;5.702;2023-02-28T04:00:27;2.00;99.90
23719;DHT22;43322;52.230;5.702;2023-02-28T04:02:55;2.00;99.90
23719;DHT22;43322;52.230;5.702;2023-02-28T04:05:22;2.00;99.90
23719;DHT22;43322;52.230;5.702;2023-02-28T04:07:51;2.00;99.90
23719;DHT22;43322;52.230;5.702;2023-02-28T04:10:18;1.90;99.90
23719;DHT22;43322;52.230;5.702;2023-02-28T04:12:45;1.90;99.90
23719;DHT22;43322;52.230;5.702;2023-02-28T04:15:12;1.90;99.90
23719;DHT22;43322;52.230;5.702;2023-02-28T04:17:38;1.90;99.90
23719;DHT22;43322;52.230;5.702;2023-02-28T04:20:06;1.90;99.90
23719;DHT22;43322;52.230;5.702;2023-02-28T04:22:35;1.90;99.90
23719;DHT22;43322;52.230;5.702;2023-02-28T04:25:05;1.80;99.90
23719;DHT22;43322;52.230;5.702;2023-02-28T04:27:32;1.80;99.90
23719;DHT22;43322;52.230;5.702;2023-02-28T04:29:59;1.90;99.90
23719;DHT22;43322;52.230;5.702;2023-02-28T04:32:26;1.80;99.90
23719;DHT22;43322;52.230;5.702;2023-02-28T04:34:53;1.80;99.90
23719;DHT22;43322;52.230;5.702;2023-02-28T04:37:20;1.80;99.90
23719;DHT22;43322;52.230;5.702;2023-02-28T04:39:53;1.70;99.90
23719;DHT22;43322;52.230;5.702;2023-02-28T04:42:21;1.80;99.90
23719;DHT22;43322;52.230;5.702;2023-02-28T04:44:48;1.80;99.90
23719;DHT22;43322;52.230;5.702;2023-02-28T04:47:14;1.80;99.90
23719;DHT22;43322;52.230;5.702;2023-02-28T04:49:41;1.80;99.90
23719;DHT22;43322;52.230;5.702;2023-02-28T04:52:08;1.70;99.90
23719;DHT22;43322;52.230;5.702;2023-02-28T04:54:35;1.70;99.90
23719;DHT22;43322;52.230;5.702;2023-02-28T04:57:04;1.70;99.90
23719;DHT22;43322;52.230;5.702;2023-02-28T04:59:32;1.60;99.90
23719;DHT22;43322;52.230;5.702;2023-02-28T05:01:59;1.60;99.90
23719;DHT22;43322;52.230;5.702;2023-02-28T05:04:32;1.60;99.90
23719;DHT22;43322;52.230;5.702;2023-02-28T05:06:59;1.50;99.90
23719;DHT22;43322;52.230;5.702;2023-02-28T05:09:26;1.50;99.90
23719;DHT22;43322;52.230;5.702;2023-02-28T05:11:53;1.50;99.90
23719;DHT22;43322;52.230;5.702;2023-02-28T05:14:20;1.50;99.90
23719;DHT22;43322;52.230;5.702;2023-02-28T05:16:48;1.50;99.90
23719;DHT22;43322;52.230;5.702;2023-02-28T05:19:15;1.60;99.90
23719;DHT22;43322;52.230;5.702;2023-02-28T05:21:49;1.60;99.90
23719;DHT22;43322;52.230;5.702;2023-02-28T05:24:17;1.60;99.90
23719;DHT22;43322;52.230;5.702;2023-02-28T05:26:49;1.60;99.90
23719;DHT22;43322;52.230;5.702;2023-02-28T05:29:16;1.50;99.90
23719;DHT22;43322;52.230;5.702;2023-02-28T05:31:43;1.50;99.90
23719;DHT22;43322;52.230;5.702;2023-02-28T05:34:12;1.50;99.90
23719;DHT22;43322;52.230;5.702;2023-02-28T05:36:41;1.50;99.90
23719;DHT22;43322;52.230;5.702;2023-02-28T05:39:08;1.50;99.90
23719;DHT22;43322;52.230;5.702;2023-02-28T05:41:39;1.50;99.90
23719;DHT22;43322;52.230;5.702;2023-02-28T05:44:05;1.50;99.90
23719;DHT22;43322;52.230;5.702;2023-02-28T05:46:32;1.50;99.90
23719;DHT22;43322;52.230;5.702;2023-02-28T05:48:59;1.50;99.90
23719;DHT22;43322;52.230;5.702;2023-02-28T05:51:27;1.50;99.90
23719;DHT22;43322;52.230;5.702;2023-02-28T05:53:54;1.50;99.90
23719;DHT22;43322;52.230;5.702;2023-02-28T05:56:22;1.40;99.90
23719;DHT22;43322;52.230;5.702;2023-02-28T05:58:49;1.40;99.90
23719;DHT22;43322;52.230;5.702;2023-02-28T06:01:21;1.40;99.90
23719;DHT22;43322;52.230;5.702;2023-02-28T06:03:48;1.30;99.90
23719;DHT22;43322;52.230;5.702;2023-02-28T06:06:15;1.30;99.90
23719;DHT22;43322;52.230;5.702;2023-02-28T06:08:43;1.30;99.90
23719;DHT22;43322;52.230;5.702;2023-02-28T06:11:11;1.30;99.90
23719;DHT22;43322;52.230;5.702;2023-02-28T06:13:38;1.30;99.90
23719;DHT22;43322;52.230;5.702;2023-02-28T06:16:05;1.30;99.90
23719;DHT22;43322;52.230;5.702;2023-02-28T06:18:32;1.30;99.90
23719;DHT22;43322;52.230;5.702;2023-02-28T06:20:59;1.30;99.90
23719;DHT22;43322;52.230;5.702;2023-02-28T06:23:26;1.30;99.90
23719;DHT22;43322;52.230;5.702;2023-02-28T06:25:55;1.30;99.90
23719;DHT22;43322;52.230;5.702;2023-02-28T06:28:24;1.30;99.90
23719;DHT22;43322;52.230;5.702;2023-02-28T06:30:51;1.30;99.90
23719;DHT22;43322;52.230;5.702;2023-02-28T06:33:17;1.30;99.90
23719;DHT22;43322;52.230;5.702;2023-02-28T06:38:12;1.30;99.90
23719;DHT22;43322;52.230;5.702;2023-02-28T06:40:39;1.40;99.90
23719;DHT22;43322;52.230;5.702;2023-02-28T06:43:07;1.30;99.90
23719;DHT22;43322;52.230;5.702;2023-02-28T06:45:34;1.30;99.90
23719;DHT22;43322;52.230;5.702;2023-02-28T06:48:01;1.40;99.90
23719;DHT22;43322;52.230;5.702;2023-02-28T06:50:28;1.40;99.90
23719;DHT22;43322;52.230;5.702;2023-02-28T06:52:56;1.40;99.90
23719;DHT22;43322;52.230;5.702;2023-02-28T06:55:23;1.40;99.90
23719;DHT22;43322;52.230;5.702;2023-02-28T06:57:49;1.80;99.90
23719;DHT22;43322;52.230;5.702;2023-02-28T07:00:19;1.40;99.90
23719;DHT22;43322;52.230;5.702;2023-02-28T07:02:46;1.40;99.90
23719;DHT22;43322;52.230;5.702;2023-02-28T07:05:13;1.50;99.90
23719;DHT22;43322;52.230;5.702;2023-02-28T07:07:40;1.50;99.90
23719;DHT22;43322;52.230;5.702;2023-02-28T07:10:10;1.50;99.90
23719;DHT22;43322;52.230;5.702;2023-02-28T07:12:38;1.50;99.90
23719;DHT22;43322;52.230;5.702;2023-02-28T07:15:06;1.60;99.90
23719;DHT22;43322;52.230;5.702;2023-02-28T07:17:35;0.80;99.90
23719;DHT22;43322;52.230;5.702;2023-02-28T07:20:01;1.60;99.90
23719;DHT22;43322;52.230;5.702;2023-02-28T07:22:30;1.70;99.90
23719;DHT22;43322;52.230;5.702;2023-02-28T07:24:56;1.70;99.90
23719;DHT22;43322;52.230;5.702;2023-02-28T07:27:23;1.70;99.90
23719;DHT22;43322;52.230;5.702;2023-02-28T07:29:51;1.70;99.90
23719;DHT22;43322;52.230;5.702;2023-02-28T07:32:17;1.80;99.90
23719;DHT22;43322;52.230;5.702;2023-02-28T07:34:46;1.80;99.90
23719;DHT22;43322;52.230;5.702;2023-02-28T07:37:14;1.80;99.90
23719;DHT22;43322;52.230;5.702;2023-02-28T07:39:40;1.90;99.90
23719;DHT22;43322;52.230;5.702;2023-02-28T07:42:08;1.90;99.90
23719;DHT22;43322;52.230;5.702;2023-02-28T07:44:40;1.90;99.90
23719;DHT22;43322;52.230;5.702;2023-02-28T07:47:08;2.00;99.90
23719;DHT22;43322;52.230;5.702;2023-02-28T07:49:35;2.10;99.90
23719;DHT22;43322;52.230;5.702;2023-02-28T07:52:04;2.30;99.90
23719;DHT22;43322;52.230;5.702;2023-02-28T07:54:31;3.60;99.90
23719;DHT22;43322;52.230;5.702;2023-02-28T07:56:58;3.10;99.90
23719;DHT22;43322;52.230;5.702;2023-02-28T07:59:25;3.20;99.90
23719;DHT22;43322;52.230;5.702;2023-02-28T08:01:53;3.10;99.90
23719;DHT22;43322;52.230;5.702;2023-02-28T08:04:19;3.10;99.90
23719;DHT22;43322;52.230;5.702;2023-02-28T08:06:46;3.00;99.90
23719;DHT22;43322;52.230;5.702;2023-02-28T08:09:15;2.90;99.90
23719;DHT22;43322;52.230;5.702;2023-02-28T08:11:42;2.80;99.90
23719;DHT22;43322;52.230;5.702;2023-02-28T08:14:08;3.30;99.90
23719;DHT22;43322;52.230;5.702;2023-02-28T08:19:05;2.80;99.90
23719;DHT22;43322;52.230;5.702;2023-02-28T08:21:32;2.80;99.90
23719;DHT22;43322;52.230;5.702;2023-02-28T08:23:59;2.80;99.90
23719;DHT22;43322;52.230;5.702;2023-02-28T08:26:27;2.80;99.90
23719;DHT22;43322;52.230;5.702;2023-02-28T08:28:54;2.70;99.90
23719;DHT22;43322;52.230;5.702;2023-02-28T08:31:21;2.80;99.90
23719;DHT22;43322;52.230;5.702;2023-02-28T08:33:48;2.90;99.90
23719;DHT22;43322;52.230;5.702;2023-02-28T08:36:16;3.00;99.90
23719;DHT22;43322;52.230;5.702;2023-02-28T08:38:43;3.70;99.90
23719;DHT22;43322;52.230;5.702;2023-02-28T08:41:12;3.30;99.90
23719;DHT22;43322;52.230;5.702;2023-02-28T08:43:41;3.40;99.90
23719;DHT22;43322;52.230;5.702;2023-02-28T08:46:08;3.50;99.90
23719;DHT22;43322;52.230;5.702;2023-02-28T08:48:37;3.70;99.90
23719;DHT22;43322;52.230;5.702;2023-02-28T08:51:06;4.20;99.90
23719;DHT22;43322;52.230;5.702;2023-02-28T08:53:34;4.50;99.90
23719;DHT22;43322;52.230;5.702;2023-02-28T08:56:04;4.90;99.90
23719;DHT22;43322;52.230;5.702;2023-02-28T08:58:31;5.20;99.90
23719;DHT22;43322;52.230;5.702;2023-02-28T09:01:07;5.70;99.90
23719;DHT22;43322;52.230;5.702;2023-02-28T09:03:34;6.60;99.90
23719;DHT22;43322;52.230;5.702;2023-02-28T09:06:01;7.50;99.90
23719;DHT22;43322;52.230;5.702;2023-02-28T09:08:30;7.70;99.90
23719;DHT22;43322;52.230;5.702;2023-02-28T09:10:57;8.10;99.90
23719;DHT22;43322;52.230;5.702;2023-02-28T09:13:25;8.90;99.90
23719;DHT22;43322;52.230;5.702;2023-02-28T09:15:53;9.40;99.90
23719;DHT22;43322;52.230;5.702;2023-02-28T09:18:22;9.80;99.90
23719;DHT22;43322;52.230;5.702;2023-02-28T09:20:49;9.90;99.90
23719;DHT22;43322;52.230;5.702;2023-02-28T09:23:16;9.50;99.90
23719;DHT22;43322;52.230;5.702;2023-02-28T09:25:47;9.20;99.90
23719;DHT22;43322;52.230;5.702;2023-02-28T09:28:14;8.70;99.90
23719;DHT22;43322;52.230;5.702;2023-02-28T09:30:42;8.60;95.90
23719;DHT22;43322;52.230;5.702;2023-02-28T09:33:09;7.80;94.70
23719;DHT22;43322;52.230;5.702;2023-02-28T09:35:37;7.10;97.80
23719;DHT22;43322;52.230;5.702;2023-02-28T09:38:04;6.60;99.90
23719;DHT22;43322;52.230;5.702;2023-02-28T09:40:36;6.50;99.90
23719;DHT22;43322;52.230;5.702;2023-02-28T09:43:05;6.50;99.90
23719;DHT22;43322;52.230;5.702;2023-02-28T09:45:35;6.70;95.40
23719;DHT22;43322;52.230;5.702;2023-02-28T09:48:06;6.70;99.90
23719;DHT22;43322;52.230;5.702;2023-02-28T09:50:40;6.80;99.90
23719;DHT22;43322;52.230;5.702;2023-02-28T09:53:15;6.80;99.90
23719;DHT22;43322;52.230;5.702;2023-02-28T09:55:48;6.80;99.80
23719;DHT22;43322;52.230;5.702;2023-02-28T09:58:20;6.90;99.90
23719;DHT22;43322;52.230;5.702;2023-02-28T10:00:56;6.90;99.90
23719;DHT22;43322;52.230;5.702;2023-02-28T10:03:31;6.80;99.90
23719;DHT22;43322;52.230;5.702;2023-02-28T10:06:06;6.80;99.90
23719;DHT22;43322;52.230;5.702;2023-02-28T10:08:37;6.90;99.40
23719;DHT22;43322;52.230;5.702;2023-02-28T10:11:12;6.60;98.10
23719;DHT22;43322;52.230;5.702;2023-02-28T10:13:51;6.70;99.90
23719;DHT22;43322;52.230;5.702;2023-02-28T10:16:25;7.00;99.90
23719;DHT22;43322;52.230;5.702;2023-02-28T10:18:59;7.40;98.60
23719;DHT22;43322;52.230;5.702;2023-02-28T10:21:34;7.70;94.30
23719;DHT22;43322;52.230;5.702;2023-02-28T10:24:08;7.80;98.50
23719;DHT22;43322;52.230;5.702;2023-02-28T10:26:38;7.60;99.90
23719;DHT22;43322;52.230;5.702;2023-02-28T10:29:07;9.00;99.00
23719;DHT22;43322;52.230;5.702;2023-02-28T10:31:36;9.90;94.40
23719;DHT22;43322;52.230;5.702;2023-02-28T10:34:03;8.90;96.30
23719;DHT22;43322;52.230;5.702;2023-02-28T10:36:33;8.60;93.10
23719;DHT22;43322;52.230;5.702;2023-02-28T10:39:33;8.40;91.60
23719;DHT22;43322;52.230;5.702;2023-02-28T10:42:00;8.20;95.70
23719;DHT22;43322;52.230;5.702;2023-02-28T10:44:27;7.90;96.20
23719;DHT22;43322;52.230;5.702;2023-02-28T10:46:58;7.50;90.00
23719;DHT22;43322;52.230;5.702;2023-02-28T10:49:26;7.30;95.00
23719;DHT22;43322;52.230;5.702;2023-02-28T10:51:57;7.20;95.50
23719;DHT22;43322;52.230;5.702;2023-02-28T10:54:28;7.90;99.90
23719;DHT22;43322;52.230;5.702;2023-02-28T10:57:14;7.70;99.10
23719;DHT22;43322;52.230;5.702;2023-02-28T10:59:43;8.20;96.40
23719;DHT22;43322;52.230;5.702;2023-02-28T11:02:37;8.40;92.60
23719;DHT22;43322;52.230;5.702;2023-02-28T11:05:29;8.60;94.70
23719;DHT22;43322;52.230;5.702;2023-02-28T11:08:03;9.00;96.90
23719;DHT22;43322;52.230;5.702;2023-02-28T11:10:32;9.10;93.00
23719;DHT22;43322;52.230;5.702;2023-02-28T11:13:01;8.80;92.90
23719;DHT22;43322;52.230;5.702;2023-02-28T11:15:30;9.10;93.60
23719;DHT22;43322;52.230;5.702;2023-02-28T11:18:01;9.60;94.90
23719;DHT22;43322;52.230;5.702;2023-02-28T11:20:31;10.00;93.80
23719;DHT22;43322;52.230;5.702;2023-02-28T11:23:01;10.20;90.20
23719;DHT22;43322;52.230;5.702;2023-02-28T11:25:31;10.90;93.40
23719;DHT22;43322;52.230;5.702;2023-02-28T11:28:00;11.90;90.80
23719;DHT22;43322;52.230;5.702;2023-02-28T11:30:33;12.70;85.90
23719;DHT22;43322;52.230;5.702;2023-02-28T11:33:01;12.90;81.50
23719;DHT22;43322;52.230;5.702;2023-02-28T11:35:45;12.90;76.00
23719;DHT22;43322;52.230;5.702;2023-02-28T11:38:13;14.10;73.40
23719;DHT22;43322;52.230;5.702;2023-02-28T11:40:45;14.40;80.90
23719;DHT22;43322;52.230;5.702;2023-02-28T11:43:25;14.70;72.10
23719;DHT22;43322;52.230;5.702;2023-02-28T11:46:05;14.30;64.70
23719;DHT22;43322;52.230;5.702;2023-02-28T11:48:42;14.40;72.70
23719;DHT22;43322;52.230;5.702;2023-02-28T11:51:15;14.50;67.30
23719;DHT22;43322;52.230;5.702;2023-02-28T11:53:55;14.90;64.50
23719;DHT22;43322;52.230;5.702;2023-02-28T11:56:28;14.50;60.80
23719;DHT22;43322;52.230;5.702;2023-02-28T11:59:10;14.40;68.20
23719;DHT22;43322;52.230;5.702;2023-02-28T12:04:18;14.80;69.60
23719;DHT22;43322;52.230;5.702;2023-02-28T12:06:51;14.80;67.00
23719;DHT22;43322;52.230;5.702;2023-02-28T12:09:42;15.00;65.70
23719;DHT22;43322;52.230;5.702;2023-02-28T12:12:20;14.90;62.40
23719;DHT22;43322;52.230;5.702;2023-02-28T12:15:14;15.00;59.00
23719;DHT22;43322;52.230;5.702;2023-02-28T12:18:05;14.60;60.50
23719;DHT22;43322;52.230;5.702;2023-02-28T12:20:38;13.70;59.40
23719;DHT22;43322;52.230;5.702;2023-02-28T12:26:14;13.70;64.40
23719;DHT22;43322;52.230;5.702;2023-02-28T12:28:45;14.20;62.60
23719;DHT22;43322;52.230;5.702;2023-02-28T12:33:46;14.30;65.70
23719;DHT22;43322;52.230;5.702;2023-02-28T12:36:17;14.10;61.40
23719;DHT22;43322;52.230;5.702;2023-02-28T12:38:50;14.20;58.70
23719;DHT22;43322;52.230;5.702;2023-02-28T12:41:24;14.10;60.30
23719;DHT22;43322;52.230;5.702;2023-02-28T12:43:57;13.80;66.70
23719;DHT22;43322;52.230;5.702;2023-02-28T12:46:30;13.40;59.20
23719;DHT22;43322;52.230;5.702;2023-02-28T12:49:02;13.10;58.50
23719;DHT22;43322;52.230;5.702;2023-02-28T12:51:32;13.10;60.00
23719;DHT22;43322;52.230;5.702;2023-02-28T12:54:07;13.40;65.10
23719;DHT22;43322;52.230;5.702;2023-02-28T12:56:44;13.40;61.00
23719;DHT22;43322;52.230;5.702;2023-02-28T12:59:19;13.80;60.40
23719;DHT22;43322;52.230;5.702;2023-02-28T13:02:09;14.50;63.40
23719;DHT22;43322;52.230;5.702;2023-02-28T13:04:56;13.70;65.90
23719;DHT22;43322;52.230;5.702;2023-02-28T13:07:49;13.50;62.60
23719;DHT22;43322;52.230;5.702;2023-02-28T13:10:20;14.10;59.20
23719;DHT22;43322;52.230;5.702;2023-02-28T13:12:53;13.70;60.00
23719;DHT22;43322;52.230;5.702;2023-02-28T13:15:23;14.10;63.60
23719;DHT22;43322;52.230;5.702;2023-02-28T13:17:52;13.70;63.70
23719;DHT22;43322;52.230;5.702;2023-02-28T13:20:21;14.30;61.10
23719;DHT22;43322;52.230;5.702;2023-02-28T13:22:51;14.00;57.00
23719;DHT22;43322;52.230;5.702;2023-02-28T13:25:52;14.00;56.50
23719;DHT22;43322;52.230;5.702;2023-02-28T13:36:31;13.60;64.20
23719;DHT22;43322;52.230;5.702;2023-02-28T13:38:58;13.70;59.80
23719;DHT22;43322;52.230;5.702;2023-02-28T13:41:48;13.50;59.00
23719;DHT22;43322;52.230;5.702;2023-02-28T13:44:18;13.60;57.40
23719;DHT22;43322;52.230;5.702;2023-02-28T13:50:15;12.70;59.10
23719;DHT22;43322;52.230;5.702;2023-02-28T13:52:56;12.30;63.30
23719;DHT22;43322;52.230;5.702;2023-02-28T13:55:31;11.80;61.40
23719;DHT22;43322;52.230;5.702;2023-02-28T13:58:24;11.60;67.90
23719;DHT22;43322;52.230;5.702;2023-02-28T14:01:10;11.50;62.30
23719;DHT22;43322;52.230;5.702;2023-02-28T14:03:49;11.10;65.80
23719;DHT22;43322;52.230;5.702;2023-02-28T14:06:25;10.60;59.30
23719;DHT22;43322;52.230;5.702;2023-02-28T14:08:57;10.50;65.90
23719;DHT22;43322;52.230;5.702;2023-02-28T14:11:29;10.20;62.30
23719;DHT22;43322;52.230;5.702;2023-02-28T14:13:57;10.40;66.20
23719;DHT22;43322;52.230;5.702;2023-02-28T14:16:26;9.60;71.90
23719;DHT22;43322;52.230;5.702;2023-02-28T14:18:58;9.30;69.30
23719;DHT22;43322;52.230;5.702;2023-02-28T14:21:27;8.90;71.20
23719;DHT22;43322;52.230;5.702;2023-02-28T14:27:14;8.40;73.00
23719;DHT22;43322;52.230;5.702;2023-02-28T14:30:03;8.50;74.70
23719;DHT22;43322;52.230;5.702;2023-02-28T14:32:35;8.30;81.50
23719;DHT22;43322;52.230;5.702;2023-02-28T14:35:16;8.10;79.70
23719;DHT22;43322;52.230;5.702;2023-02-28T14:37:45;8.00;81.10
23719;DHT22;43322;52.230;5.702;2023-02-28T14:40:15;7.90;84.30
23719;DHT22;43322;52.230;5.702;2023-02-28T14:42:55;7.90;80.20
23719;DHT22;43322;52.230;5.702;2023-02-28T14:45:22;7.80;79.60
23719;DHT22;43322;52.230;5.702;2023-02-28T14:47:51;7.70;86.60
23719;DHT22;43322;52.230;5.702;2023-02-28T14:50:21;7.80;83.40
23719;DHT22;43322;52.230;5.702;2023-02-28T14:52:52;7.80;82.00
23719;DHT22;43322;52.230;5.702;2023-02-28T14:55:24;7.80;80.40
23719;DHT22;43322;52.230;5.702;2023-02-28T14:57:55;7.70;81.10
23719;DHT22;43322;52.230;5.702;2023-02-28T15:00:25;7.70;87.20
23719;DHT22;43322;52.230;5.702;2023-02-28T15:02:52;7.90;87.30
23719;DHT22;43322;52.230;5.702;2023-02-28T15:05:25;8.00;84.60
23719;DHT22;43322;52.230;5.702;2023-02-28T15:08:05;8.10;85.30
23719;DHT22;43322;52.230;5.702;2023-02-28T15:10:33;8.20;86.00
23719;DHT22;43322;52.230;5.702;2023-02-28T15:13:05;8.30;83.50
23719;DHT22;43322;52.230;5.702;2023-02-28T15:15:41;8.30;80.20
23719;DHT22;43322;52.230;5.702;2023-02-28T15:18:17;8.30;80.70
23719;DHT22;43322;52.230;5.702;2023-02-28T15:20:47;8.40;79.40
23719;DHT22;43322;52.230;5.702;2023-02-28T15:23:15;8.40;77.00
23719;DHT22;43322;52.230;5.702;2023-02-28T15:25:43;8.70;82.50
23719;DHT22;43322;52.230;5.702;2023-02-28T15:28:16;8.90;78.80
23719;DHT22;43322;52.230;5.702;2023-02-28T15:30:53;9.10;81.30
23719;DHT22;43322;52.230;5.702;2023-02-28T15:33:22;9.40;77.50
23719;DHT22;43322;52.230;5.702;2023-02-28T15:35:50;9.10;81.70
23719;DHT22;43322;52.230;5.702;2023-02-28T15:38:22;9.20;75.70
23719;DHT22;43322;52.230;5.702;2023-02-28T15:40:51;9.10;75.00
23719;DHT22;43322;52.230;5.702;2023-02-28T15:43:28;8.80;78.00
23719;DHT22;43322;52.230;5.702;2023-02-28T15:45:58;8.60;74.70
23719;DHT22;43322;52.230;5.702;2023-02-28T15:48:28;8.20;77.30
23719;DHT22;43322;52.230;5.702;2023-02-28T15:50:58;7.80;83.30
23719;DHT22;43322;52.230;5.702;2023-02-28T15:53:30;7.40;87.20
23719;DHT22;43322;52.230;5.702;2023-02-28T15:56:01;8.30;85.50
23719;DHT22;43322;52.230;5.702;2023-02-28T15:58:29;6.90;87.10
23719;DHT22;43322;52.230;5.702;2023-02-28T16:01:01;6.60;90.10
23719;DHT22;43322;52.230;5.702;2023-02-28T16:03:38;6.50;90.80
23719;DHT22;43322;52.230;5.702;2023-02-28T16:09:10;6.20;94.90
23719;DHT22;43322;52.230;5.702;2023-02-28T16:11:40;6.50;94.30
23719;DHT22;43322;52.230;5.702;2023-02-28T16:14:15;6.00;94.20
23719;DHT22;43322;52.230;5.702;2023-02-28T16:16:45;5.90;96.00
23719;DHT22;43322;52.230;5.702;2023-02-28T16:19:12;5.80;98.20
23719;DHT22;43322;52.230;5.702;2023-02-28T16:21:39;5.70;97.40
23719;DHT22;43322;52.230;5.702;2023-02-28T16:24:06;5.60;98.60
23719;DHT22;43322;52.230;5.702;2023-02-28T16:26:33;5.60;97.30
23719;DHT22;43322;52.230;5.702;2023-02-28T16:29:03;5.60;99.00
23719;DHT22;43322;52.230;5.702;2023-02-28T16:31:34;5.50;99.90
23719;DHT22;43322;52.230;5.702;2023-02-28T16:34:02;5.40;99.90
23719;DHT22;43322;52.230;5.702;2023-02-28T16:36:29;5.40;99.40
23719;DHT22;43322;52.230;5.702;2023-02-28T16:38:56;5.40;99.90
23719;DHT22;43322;52.230;5.702;2023-02-28T16:41:25;5.30;99.90
23719;DHT22;43322;52.230;5.702;2023-02-28T16:43:54;5.30;99.90
23719;DHT22;43322;52.230;5.702;2023-02-28T16:46:25;5.20;99.90